sensor_id;sensor_type;location;lat;lon;timestamp;P1;durP1;ratioP1;P2;durP2;ratioP2
75535;SDS011;64119;52.070;20.804;2023-12-28T00:00:23;28.30;;;11.50;;
75535;SDS011;64119;52.070;20.804;2023-12-28T00:03:10;21.60;;;10.70;;
75535;SDS011;64119;52.070;20.804;2023-12-28T00:05:39;24.30;;;11.50;;
75535;SDS011;64119;52.070;20.804;2023-12-28T00:08:07;23.60;;;10.10;;
75535;SDS011;64119;52.070;20.804;2023-12-28T00:10:34;23.20;;;11.50;;
75535;SDS011;64119;52.070;20.804;2023-12-28T00:15:32;22.30;;;9.50;;
75535;SDS011;64119;52.070;20.804;2023-12-28T00:18:00;25.90;;;11.60;;
75535;SDS011;64119;52.070;20.804;2023-12-28T00:20:28;22.60;;;10.80;;
75535;SDS011;64119;52.070;20.804;2023-12-28T00:22:56;23.30;;;11.50;;
75535;SDS011;64119;52.070;20.804;2023-12-28T00:25:25;22.30;;;11.70;;
75535;SDS011;64119;52.070;20.804;2023-12-28T00:27:53;23.30;;;10.30;;
75535;SDS011;64119;52.070;20.804;2023-12-28T00:30:21;27.70;;;12.60;;
75535;SDS011;64119;52.070;20.804;2023-12-28T00:32:49;25.20;;;10.60;;
75535;SDS011;64119;52.070;20.804;2023-12-28T00:35:16;23.90;;;11.30;;
75535;SDS011;64119;52.070;20.804;2023-12-28T00:37:44;29.00;;;14.20;;
75535;SDS011;64119;52.070;20.804;2023-12-28T00:40:12;22.30;;;10.00;;
75535;SDS011;64119;52.070;20.804;2023-12-28T00:42:40;24.70;;;10.70;;
75535;SDS011;64119;52.070;20.804;2023-12-28T00:45:09;26.40;;;11.70;;
75535;SDS011;64119;52.070;20.804;2023-12-28T00:47:37;23.70;;;11.30;;
75535;SDS011;64119;52.070;20.804;2023-12-28T00:50:05;31.10;;;12.70;;
75535;SDS011;64119;52.070;20.804;2023-12-28T00:52:34;22.90;;;9.10;;
75535;SDS011;64119;52.070;20.804;2023-12-28T00:55:02;26.10;;;11.90;;
75535;SDS011;64119;52.070;20.804;2023-12-28T00:57:30;27.50;;;11.50;;
75535;SDS011;64119;52.070;20.804;2023-12-28T00:59:58;29.10;;;12.90;;
75535;SDS011;64119;52.070;20.804;2023-12-28T01:02:27;19.60;;;8.70;;
75535;SDS011;64119;52.070;20.804;2023-12-28T01:04:55;17.40;;;9.60;;
75535;SDS011;64119;52.070;20.804;2023-12-28T01:07:22;29.20;;;13.60;;
75535;SDS011;64119;52.070;20.804;2023-12-28T01:09:51;18.70;;;9.60;;
75535;SDS011;64119;52.070;20.804;2023-12-28T01:12:19;24.30;;;11.40;;
75535;SDS011;64119;52.070;20.804;2023-12-28T01:14:47;25.10;;;11.00;;
75535;SDS011;64119;52.070;20.804;2023-12-28T01:17:15;22.30;;;10.50;;
75535;SDS011;64119;52.070;20.804;2023-12-28T01:19:42;22.80;;;9.90;;
75535;SDS011;64119;52.070;20.804;2023-12-28T01:22:11;23.30;;;9.80;;
75535;SDS011;64119;52.070;20.804;2023-12-28T01:24:39;20.10;;;8.10;;
75535;SDS011;64119;52.070;20.804;2023-12-28T01:27:07;20.40;;;10.80;;
75535;SDS011;64119;52.070;20.804;2023-12-28T01:29:34;17.80;;;8.50;;
75535;SDS011;64119;52.070;20.804;2023-12-28T01:32:03;19.50;;;9.30;;
75535;SDS011;64119;52.070;20.804;2023-12-28T01:34:31;16.90;;;8.40;;
75535;SDS011;64119;52.070;20.804;2023-12-28T01:36:59;18.80;;;7.90;;
75535;SDS011;64119;52.070;20.804;2023-12-28T01:39:27;20.90;;;8.60;;
75535;SDS011;64119;52.070;20.804;2023-12-28T01:41:54;15.90;;;7.80;;
75535;SDS011;64119;52.070;20.804;2023-12-28T01:44:22;19.80;;;9.30;;
75535;SDS011;64119;52.070;20.804;2023-12-28T01:46:50;18.40;;;7.10;;
75535;SDS011;64119;52.070;20.804;2023-12-28T01:49:19;12.80;;;6.80;;
75535;SDS011;64119;52.070;20.804;2023-12-28T01:51:48;17.70;;;8.80;;
75535;SDS011;64119;52.070;20.804;2023-12-28T01:54:17;20.40;;;8.00;;
75535;SDS011;64119;52.070;20.804;2023-12-28T01:56:45;16.00;;;7.00;;
75535;SDS011;64119;52.070;20.804;2023-12-28T01:59:13;15.30;;;7.70;;
75535;SDS011;64119;52.070;20.804;2023-12-28T02:01:41;17.80;;;8.50;;
75535;SDS011;64119;52.070;20.804;2023-12-28T02:04:09;15.50;;;6.90;;
75535;SDS011;64119;52.070;20.804;2023-12-28T02:06:37;14.50;;;5.90;;
75535;SDS011;64119;52.070;20.804;2023-12-28T02:09:05;16.00;;;7.00;;
75535;SDS011;64119;52.070;20.804;2023-12-28T02:11:33;20.00;;;8.70;;
75535;SDS011;64119;52.070;20.804;2023-12-28T02:14:00;16.90;;;6.90;;
75535;SDS011;64119;52.070;20.804;2023-12-28T02:16:29;23.70;;;8.70;;
75535;SDS011;64119;52.070;20.804;2023-12-28T02:19:03;17.70;;;7.60;;
75535;SDS011;64119;52.070;20.804;2023-12-28T02:21:42;12.90;;;7.40;;
75535;SDS011;64119;52.070;20.804;2023-12-28T02:24:10;8.60;;;4.90;;
75535;SDS011;64119;52.070;20.804;2023-12-28T02:26:38;16.40;;;8.10;;
75535;SDS011;64119;52.070;20.804;2023-12-28T02:29:06;12.00;;;5.40;;
75535;SDS011;64119;52.070;20.804;2023-12-28T02:31:43;14.00;;;6.20;;
75535;SDS011;64119;52.070;20.804;2023-12-28T02:34:16;15.00;;;6.60;;
75535;SDS011;64119;52.070;20.804;2023-12-28T02:36:55;11.60;;;5.90;;
75535;SDS011;64119;52.070;20.804;2023-12-28T02:39:24;12.80;;;6.40;;
75535;SDS011;64119;52.070;20.804;2023-12-28T02:41:52;17.50;;;6.80;;
75535;SDS011;64119;52.070;20.804;2023-12-28T02:44:22;11.90;;;5.10;;
75535;SDS011;64119;52.070;20.804;2023-12-28T02:46:51;11.50;;;6.20;;
75535;SDS011;64119;52.070;20.804;2023-12-28T02:49:19;14.90;;;6.20;;
75535;SDS011;64119;52.070;20.804;2023-12-28T02:51:46;15.60;;;6.10;;
75535;SDS011;64119;52.070;20.804;2023-12-28T02:54:14;14.80;;;6.70;;
75535;SDS011;64119;52.070;20.804;2023-12-28T02:56:42;11.10;;;6.10;;
75535;SDS011;64119;52.070;20.804;2023-12-28T02:59:10;13.30;;;5.80;;
75535;SDS011;64119;52.070;20.804;2023-12-28T03:01:38;14.30;;;6.30;;
75535;SDS011;64119;52.070;20.804;2023-12-28T03:04:07;13.30;;;5.70;;
75535;SDS011;64119;52.070;20.804;2023-12-28T03:09:07;10.70;;;5.20;;
75535;SDS011;64119;52.070;20.804;2023-12-28T03:11:35;13.70;;;6.00;;
75535;SDS011;64119;52.070;20.804;2023-12-28T03:14:02;13.60;;;4.70;;
75535;SDS011;64119;52.070;20.804;2023-12-28T03:16:30;14.80;;;5.90;;
75535;SDS011;64119;52.070;20.804;2023-12-28T03:19:01;14.60;;;6.40;;
75535;SDS011;64119;52.070;20.804;2023-12-28T03:21:29;13.20;;;6.00;;
75535;SDS011;64119;52.070;20.804;2023-12-28T03:23:57;16.00;;;6.60;;
75535;SDS011;64119;52.070;20.804;2023-12-28T03:26:25;11.30;;;4.90;;
75535;SDS011;64119;52.070;20.804;2023-12-28T03:28:53;12.60;;;5.00;;
75535;SDS011;64119;52.070;20.804;2023-12-28T03:31:20;11.80;;;5.80;;
75535;SDS011;64119;52.070;20.804;2023-12-28T03:33:49;13.70;;;6.00;;
75535;SDS011;64119;52.070;20.804;2023-12-28T03:36:20;10.20;;;4.90;;
75535;SDS011;64119;52.070;20.804;2023-12-28T03:38:48;15.50;;;6.70;;
75535;SDS011;64119;52.070;20.804;2023-12-28T03:43:46;16.60;;;6.10;;
75535;SDS011;64119;52.070;20.804;2023-12-28T03:46:14;16.10;;;6.60;;
75535;SDS011;64119;52.070;20.804;2023-12-28T03:48:42;12.20;;;6.00;;
75535;SDS011;64119;52.070;20.804;2023-12-28T03:51:13;17.20;;;7.10;;
75535;SDS011;64119;52.070;20.804;2023-12-28T03:53:42;15.80;;;6.10;;
75535;SDS011;64119;52.070;20.804;2023-12-28T03:56:26;13.70;;;5.40;;
75535;SDS011;64119;52.070;20.804;2023-12-28T03:58:54;12.40;;;6.40;;
75535;SDS011;64119;52.070;20.804;2023-12-28T04:01:22;17.10;;;7.30;;
75535;SDS011;64119;52.070;20.804;2023-12-28T04:03:50;18.30;;;6.70;;
75535;SDS011;64119;52.070;20.804;2023-12-28T04:06:18;19.90;;;8.40;;
75535;SDS011;64119;52.070;20.804;2023-12-28T04:08:46;17.60;;;7.20;;
75535;SDS011;64119;52.070;20.804;2023-12-28T04:11:14;11.10;;;5.40;;
75535;SDS011;64119;52.070;20.804;2023-12-28T04:13:42;14.60;;;6.50;;
75535;SDS011;64119;52.070;20.804;2023-12-28T04:16:13;13.50;;;6.60;;
75535;SDS011;64119;52.070;20.804;2023-12-28T04:18:42;17.50;;;6.50;;
75535;SDS011;64119;52.070;20.804;2023-12-28T04:21:11;11.20;;;4.70;;
75535;SDS011;64119;52.070;20.804;2023-12-28T04:23:40;15.00;;;6.50;;
75535;SDS011;64119;52.070;20.804;2023-12-28T04:26:08;17.30;;;7.10;;
75535;SDS011;64119;52.070;20.804;2023-12-28T04:28:36;12.40;;;5.90;;
75535;SDS011;64119;52.070;20.804;2023-12-28T04:31:04;13.00;;;6.30;;
75535;SDS011;64119;52.070;20.804;2023-12-28T04:33:33;24.20;;;8.00;;
75535;SDS011;64119;52.070;20.804;2023-12-28T04:36:02;16.40;;;6.80;;
75535;SDS011;64119;52.070;20.804;2023-12-28T04:38:32;12.10;;;5.60;;
75535;SDS011;64119;52.070;20.804;2023-12-28T04:41:00;11.60;;;6.00;;
75535;SDS011;64119;52.070;20.804;2023-12-28T04:43:28;16.10;;;5.70;;
75535;SDS011;64119;52.070;20.804;2023-12-28T04:45:56;10.50;;;5.50;;
75535;SDS011;64119;52.070;20.804;2023-12-28T04:48:26;13.90;;;5.60;;
75535;SDS011;64119;52.070;20.804;2023-12-28T04:50:54;13.90;;;6.80;;
75535;SDS011;64119;52.070;20.804;2023-12-28T04:53:22;12.00;;;6.40;;
75535;SDS011;64119;52.070;20.804;2023-12-28T04:55:50;16.30;;;6.80;;
75535;SDS011;64119;52.070;20.804;2023-12-28T04:58:17;14.00;;;7.30;;
75535;SDS011;64119;52.070;20.804;2023-12-28T05:00:46;15.70;;;8.30;;
75535;SDS011;64119;52.070;20.804;2023-12-28T05:03:14;16.00;;;6.70;;
75535;SDS011;64119;52.070;20.804;2023-12-28T05:05:42;14.50;;;6.20;;
75535;SDS011;64119;52.070;20.804;2023-12-28T05:08:10;18.60;;;8.10;;
75535;SDS011;64119;52.070;20.804;2023-12-28T05:10:37;16.30;;;6.70;;
75535;SDS011;64119;52.070;20.804;2023-12-28T05:13:05;16.30;;;6.50;;
75535;SDS011;64119;52.070;20.804;2023-12-28T05:15:33;15.90;;;7.00;;
75535;SDS011;64119;52.070;20.804;2023-12-28T05:18:01;17.50;;;8.50;;
75535;SDS011;64119;52.070;20.804;2023-12-28T05:20:30;11.80;;;5.60;;
75535;SDS011;64119;52.070;20.804;2023-12-28T05:22:57;16.30;;;6.50;;
75535;SDS011;64119;52.070;20.804;2023-12-28T05:25:25;12.70;;;6.20;;
75535;SDS011;64119;52.070;20.804;2023-12-28T05:27:53;14.40;;;7.20;;
75535;SDS011;64119;52.070;20.804;2023-12-28T05:30:21;14.50;;;5.90;;
75535;SDS011;64119;52.070;20.804;2023-12-28T05:32:48;12.60;;;6.10;;
75535;SDS011;64119;52.070;20.804;2023-12-28T05:35:16;13.90;;;5.80;;
75535;SDS011;64119;52.070;20.804;2023-12-28T05:37:44;13.10;;;5.50;;
75535;SDS011;64119;52.070;20.804;2023-12-28T05:40:12;13.90;;;5.10;;
75535;SDS011;64119;52.070;20.804;2023-12-28T05:42:40;8.90;;;4.50;;
75535;SDS011;64119;52.070;20.804;2023-12-28T05:45:08;16.90;;;6.50;;
75535;SDS011;64119;52.070;20.804;2023-12-28T05:47:36;11.50;;;5.50;;
75535;SDS011;64119;52.070;20.804;2023-12-28T05:50:04;11.40;;;5.50;;
75535;SDS011;64119;52.070;20.804;2023-12-28T05:52:33;9.80;;;4.00;;
75535;SDS011;64119;52.070;20.804;2023-12-28T05:55:01;13.20;;;5.40;;
75535;SDS011;64119;52.070;20.804;2023-12-28T05:57:29;13.70;;;5.80;;
75535;SDS011;64119;52.070;20.804;2023-12-28T05:59:58;11.70;;;5.10;;
75535;SDS011;64119;52.070;20.804;2023-12-28T06:02:26;9.00;;;4.20;;
75535;SDS011;64119;52.070;20.804;2023-12-28T06:04:54;10.40;;;4.50;;
75535;SDS011;64119;52.070;20.804;2023-12-28T06:07:22;12.10;;;4.40;;
75535;SDS011;64119;52.070;20.804;2023-12-28T06:09:50;11.00;;;4.70;;
75535;SDS011;64119;52.070;20.804;2023-12-28T06:12:18;12.50;;;4.90;;
75535;SDS011;64119;52.070;20.804;2023-12-28T06:14:46;9.90;;;4.80;;
75535;SDS011;64119;52.070;20.804;2023-12-28T06:17:13;9.30;;;4.60;;
75535;SDS011;64119;52.070;20.804;2023-12-28T06:19:43;14.30;;;5.60;;
75535;SDS011;64119;52.070;20.804;2023-12-28T06:22:11;10.00;;;4.70;;
75535;SDS011;64119;52.070;20.804;2023-12-28T06:24:39;15.00;;;5.10;;
75535;SDS011;64119;52.070;20.804;2023-12-28T06:27:08;11.00;;;4.90;;
75535;SDS011;64119;52.070;20.804;2023-12-28T06:29:36;11.00;;;5.10;;
75535;SDS011;64119;52.070;20.804;2023-12-28T06:32:04;9.00;;;4.70;;
75535;SDS011;64119;52.070;20.804;2023-12-28T06:34:32;11.40;;;5.30;;
75535;SDS011;64119;52.070;20.804;2023-12-28T06:37:00;11.90;;;5.20;;
75535;SDS011;64119;52.070;20.804;2023-12-28T06:39:29;9.90;;;4.50;;
75535;SDS011;64119;52.070;20.804;2023-12-28T06:41:56;16.50;;;5.80;;
75535;SDS011;64119;52.070;20.804;2023-12-28T06:44:24;12.80;;;5.20;;
75535;SDS011;64119;52.070;20.804;2023-12-28T06:46:54;12.60;;;5.30;;
75535;SDS011;64119;52.070;20.804;2023-12-28T06:49:22;12.50;;;6.00;;
75535;SDS011;64119;52.070;20.804;2023-12-28T06:51:50;11.90;;;4.90;;
75535;SDS011;64119;52.070;20.804;2023-12-28T06:54:18;10.20;;;4.70;;
75535;SDS011;64119;52.070;20.804;2023-12-28T06:56:45;12.50;;;5.70;;
75535;SDS011;64119;52.070;20.804;2023-12-28T06:59:13;13.30;;;5.00;;
75535;SDS011;64119;52.070;20.804;2023-12-28T07:01:43;9.40;;;4.60;;
75535;SDS011;64119;52.070;20.804;2023-12-28T07:04:11;10.60;;;5.00;;
75535;SDS011;64119;52.070;20.804;2023-12-28T07:06:40;12.20;;;5.80;;
75535;SDS011;64119;52.070;20.804;2023-12-28T07:09:08;9.10;;;4.80;;
75535;SDS011;64119;52.070;20.804;2023-12-28T07:11:35;10.70;;;6.40;;
75535;SDS011;64119;52.070;20.804;2023-12-28T07:14:03;13.70;;;6.60;;
75535;SDS011;64119;52.070;20.804;2023-12-28T07:16:31;11.10;;;4.80;;
75535;SDS011;64119;52.070;20.804;2023-12-28T07:18:58;11.10;;;5.40;;
75535;SDS011;64119;52.070;20.804;2023-12-28T07:21:26;11.90;;;4.20;;
75535;SDS011;64119;52.070;20.804;2023-12-28T07:23:54;10.40;;;4.60;;
75535;SDS011;64119;52.070;20.804;2023-12-28T07:26:22;9.10;;;4.80;;
75535;SDS011;64119;52.070;20.804;2023-12-28T07:28:50;12.20;;;5.40;;
75535;SDS011;64119;52.070;20.804;2023-12-28T07:31:24;10.30;;;4.50;;
75535;SDS011;64119;52.070;20.804;2023-12-28T07:33:53;7.40;;;4.20;;
75535;SDS011;64119;52.070;20.804;2023-12-28T07:36:22;10.10;;;4.20;;
75535;SDS011;64119;52.070;20.804;2023-12-28T07:38:49;13.80;;;5.90;;
75535;SDS011;64119;52.070;20.804;2023-12-28T07:41:17;10.30;;;5.40;;
75535;SDS011;64119;52.070;20.804;2023-12-28T07:43:45;16.10;;;6.70;;
75535;SDS011;64119;52.070;20.804;2023-12-28T07:46:13;11.80;;;5.50;;
75535;SDS011;64119;52.070;20.804;2023-12-28T07:48:41;13.60;;;6.00;;
75535;SDS011;64119;52.070;20.804;2023-12-28T07:51:09;13.10;;;5.90;;
75535;SDS011;64119;52.070;20.804;2023-12-28T07:53:36;11.10;;;5.70;;
75535;SDS011;64119;52.070;20.804;2023-12-28T07:56:04;11.30;;;5.60;;
75535;SDS011;64119;52.070;20.804;2023-12-28T07:58:34;10.50;;;5.10;;
75535;SDS011;64119;52.070;20.804;2023-12-28T08:01:09;12.10;;;6.30;;
75535;SDS011;64119;52.070;20.804;2023-12-28T08:03:38;11.50;;;4.80;;
75535;SDS011;64119;52.070;20.804;2023-12-28T08:06:06;14.40;;;5.90;;
75535;SDS011;64119;52.070;20.804;2023-12-28T08:08:34;14.00;;;6.30;;
75535;SDS011;64119;52.070;20.804;2023-12-28T08:11:04;15.30;;;6.10;;
75535;SDS011;64119;52.070;20.804;2023-12-28T08:13:31;13.70;;;6.50;;
75535;SDS011;64119;52.070;20.804;2023-12-28T08:15:59;10.90;;;5.30;;
75535;SDS011;64119;52.070;20.804;2023-12-28T08:18:27;11.40;;;5.10;;
75535;SDS011;64119;52.070;20.804;2023-12-28T08:20:55;11.30;;;5.60;;
75535;SDS011;64119;52.070;20.804;2023-12-28T08:23:24;10.40;;;5.30;;
75535;SDS011;64119;52.070;20.804;2023-12-28T08:25:51;9.70;;;5.80;;
75535;SDS011;64119;52.070;20.804;2023-12-28T08:28:19;8.90;;;5.20;;
75535;SDS011;64119;52.070;20.804;2023-12-28T08:30:47;11.20;;;5.60;;
75535;SDS011;64119;52.070;20.804;2023-12-28T08:33:15;9.20;;;4.70;;
75535;SDS011;64119;52.070;20.804;2023-12-28T08:35:43;8.60;;;5.20;;
75535;SDS011;64119;52.070;20.804;2023-12-28T08:38:11;11.00;;;5.10;;
75535;SDS011;64119;52.070;20.804;2023-12-28T08:40:38;8.60;;;5.00;;
75535;SDS011;64119;52.070;20.804;2023-12-28T08:43:06;10.30;;;5.10;;
75535;SDS011;64119;52.070;20.804;2023-12-28T08:45:34;9.70;;;5.10;;
75535;SDS011;64119;52.070;20.804;2023-12-28T08:48:03;8.40;;;4.60;;
75535;SDS011;64119;52.070;20.804;2023-12-28T08:50:32;10.50;;;4.70;;
75535;SDS011;64119;52.070;20.804;2023-12-28T08:53:00;7.50;;;4.90;;
75535;SDS011;64119;52.070;20.804;2023-12-28T08:55:28;8.90;;;4.80;;
75535;SDS011;64119;52.070;20.804;2023-12-28T08:57:56;11.30;;;5.60;;
75535;SDS011;64119;52.070;20.804;2023-12-28T09:00:24;11.40;;;5.10;;
75535;SDS011;64119;52.070;20.804;2023-12-28T09:02:52;12.40;;;5.20;;
75535;SDS011;64119;52.070;20.804;2023-12-28T09:05:20;11.00;;;4.70;;
75535;SDS011;64119;52.070;20.804;2023-12-28T09:07:48;9.50;;;4.30;;
75535;SDS011;64119;52.070;20.804;2023-12-28T09:10:15;8.60;;;4.80;;
75535;SDS011;64119;52.070;20.804;2023-12-28T09:12:43;7.90;;;4.50;;
75535;SDS011;64119;52.070;20.804;2023-12-28T09:15:11;10.00;;;5.10;;
75535;SDS011;64119;52.070;20.804;2023-12-28T09:17:39;10.50;;;4.60;;
75535;SDS011;64119;52.070;20.804;2023-12-28T09:20:08;7.60;;;4.10;;
75535;SDS011;64119;52.070;20.804;2023-12-28T09:22:36;9.00;;;3.80;;
75535;SDS011;64119;52.070;20.804;2023-12-28T09:25:04;7.50;;;4.50;;
75535;SDS011;64119;52.070;20.804;2023-12-28T09:27:32;11.80;;;4.60;;
75535;SDS011;64119;52.070;20.804;2023-12-28T09:30:00;6.30;;;3.30;;
75535;SDS011;64119;52.070;20.804;2023-12-28T09:32:28;9.20;;;5.10;;
75535;SDS011;64119;52.070;20.804;2023-12-28T09:34:56;7.90;;;3.70;;
75535;SDS011;64119;52.070;20.804;2023-12-28T09:37:24;7.30;;;3.20;;
75535;SDS011;64119;52.070;20.804;2023-12-28T09:39:51;8.90;;;4.20;;
75535;SDS011;64119;52.070;20.804;2023-12-28T09:42:25;9.30;;;4.70;;
75535;SDS011;64119;52.070;20.804;2023-12-28T09:44:55;8.30;;;4.10;;
75535;SDS011;64119;52.070;20.804;2023-12-28T09:47:24;7.60;;;4.10;;
75535;SDS011;64119;52.070;20.804;2023-12-28T09:49:51;8.00;;;3.50;;
75535;SDS011;64119;52.070;20.804;2023-12-28T09:52:20;5.70;;;3.10;;
75535;SDS011;64119;52.070;20.804;2023-12-28T09:54:47;8.50;;;4.00;;
75535;SDS011;64119;52.070;20.804;2023-12-28T09:57:15;7.70;;;3.90;;
75535;SDS011;64119;52.070;20.804;2023-12-28T09:59:44;7.60;;;3.60;;
75535;SDS011;64119;52.070;20.804;2023-12-28T10:02:12;6.30;;;3.60;;
75535;SDS011;64119;52.070;20.804;2023-12-28T10:04:40;7.70;;;5.10;;
75535;SDS011;64119;52.070;20.804;2023-12-28T10:07:08;8.70;;;4.40;;
75535;SDS011;64119;52.070;20.804;2023-12-28T10:09:36;7.70;;;3.60;;
75535;SDS011;64119;52.070;20.804;2023-12-28T10:12:05;8.50;;;3.50;;
75535;SDS011;64119;52.070;20.804;2023-12-28T10:14:33;6.40;;;3.20;;
75535;SDS011;64119;52.070;20.804;2023-12-28T10:17:02;7.30;;;3.50;;
75535;SDS011;64119;52.070;20.804;2023-12-28T10:19:29;7.20;;;4.30;;
75535;SDS011;64119;52.070;20.804;2023-12-28T10:21:58;6.40;;;3.60;;
75535;SDS011;64119;52.070;20.804;2023-12-28T10:24:27;8.60;;;4.40;;
75535;SDS011;64119;52.070;20.804;2023-12-28T10:26:55;7.60;;;4.40;;
75535;SDS011;64119;52.070;20.804;2023-12-28T10:29:26;6.50;;;3.70;;
75535;SDS011;64119;52.070;20.804;2023-12-28T10:31:54;6.30;;;3.60;;
75535;SDS011;64119;52.070;20.804;2023-12-28T10:34:22;6.80;;;3.60;;
75535;SDS011;64119;52.070;20.804;2023-12-28T10:36:52;9.00;;;4.20;;
75535;SDS011;64119;52.070;20.804;2023-12-28T10:39:20;6.00;;;3.10;;
75535;SDS011;64119;52.070;20.804;2023-12-28T10:41:51;6.10;;;3.60;;
75535;SDS011;64119;52.070;20.804;2023-12-28T10:44:22;5.10;;;3.30;;
75535;SDS011;64119;52.070;20.804;2023-12-28T10:46:55;5.30;;;3.40;;
75535;SDS011;64119;52.070;20.804;2023-12-28T10:49:28;7.30;;;3.50;;
75535;SDS011;64119;52.070;20.804;2023-12-28T10:51:58;5.40;;;3.10;;
75535;SDS011;64119;52.070;20.804;2023-12-28T10:55:04;6.30;;;3.40;;
75535;SDS011;64119;52.070;20.804;2023-12-28T10:57:29;6.40;;;3.50;;
75535;SDS011;64119;52.070;20.804;2023-12-28T11:00:10;7.50;;;3.80;;
75535;SDS011;64119;52.070;20.804;2023-12-28T11:02:42;5.00;;;3.00;;
75535;SDS011;64119;52.070;20.804;2023-12-28T11:05:13;8.70;;;3.60;;
75535;SDS011;64119;52.070;20.804;2023-12-28T11:07:42;8.00;;;3.80;;
75535;SDS011;64119;52.070;20.804;2023-12-28T11:10:11;7.00;;;3.90;;
75535;SDS011;64119;52.070;20.804;2023-12-28T11:12:42;7.80;;;4.20;;
75535;SDS011;64119;52.070;20.804;2023-12-28T11:17:39;5.60;;;3.10;;
75535;SDS011;64119;52.070;20.804;2023-12-28T11:20:08;9.10;;;3.80;;
75535;SDS011;64119;52.070;20.804;2023-12-28T11:22:37;6.70;;;3.80;;
75535;SDS011;64119;52.070;20.804;2023-12-28T11:25:06;7.70;;;3.80;;
75535;SDS011;64119;52.070;20.804;2023-12-28T11:27:41;7.40;;;4.10;;
75535;SDS011;64119;52.070;20.804;2023-12-28T11:30:09;6.80;;;3.90;;
75535;SDS011;64119;52.070;20.804;2023-12-28T11:32:38;5.30;;;2.80;;
75535;SDS011;64119;52.070;20.804;2023-12-28T11:35:12;6.30;;;3.50;;
75535;SDS011;64119;52.070;20.804;2023-12-28T11:37:44;7.80;;;3.70;;
75535;SDS011;64119;52.070;20.804;2023-12-28T11:40:16;5.60;;;3.00;;
75535;SDS011;64119;52.070;20.804;2023-12-28T11:42:50;9.20;;;4.10;;
75535;SDS011;64119;52.070;20.804;2023-12-28T11:45:20;12.30;;;3.80;;
75535;SDS011;64119;52.070;20.804;2023-12-28T11:48:00;7.40;;;3.90;;
75535;SDS011;64119;52.070;20.804;2023-12-28T11:50:29;9.30;;;4.00;;
75535;SDS011;64119;52.070;20.804;2023-12-28T11:52:56;7.60;;;4.20;;
75535;SDS011;64119;52.070;20.804;2023-12-28T11:55:25;8.60;;;3.90;;
75535;SDS011;64119;52.070;20.804;2023-12-28T11:57:53;8.20;;;3.70;;
75535;SDS011;64119;52.070;20.804;2023-12-28T12:00:22;8.30;;;3.70;;
75535;SDS011;64119;52.070;20.804;2023-12-28T12:02:52;8.30;;;4.00;;
75535;SDS011;64119;52.070;20.804;2023-12-28T12:05:20;6.50;;;3.80;;
75535;SDS011;64119;52.070;20.804;2023-12-28T12:07:49;7.70;;;4.00;;
75535;SDS011;64119;52.070;20.804;2023-12-28T12:10:17;7.20;;;3.60;;
75535;SDS011;64119;52.070;20.804;2023-12-28T12:12:45;7.30;;;3.80;;
75535;SDS011;64119;52.070;20.804;2023-12-28T12:15:13;7.10;;;3.50;;
75535;SDS011;64119;52.070;20.804;2023-12-28T12:17:42;8.50;;;4.10;;
75535;SDS011;64119;52.070;20.804;2023-12-28T12:20:10;6.70;;;3.60;;
75535;SDS011;64119;52.070;20.804;2023-12-28T12:22:38;7.30;;;3.50;;
75535;SDS011;64119;52.070;20.804;2023-12-28T12:25:07;6.50;;;3.30;;
75535;SDS011;64119;52.070;20.804;2023-12-28T12:27:36;6.60;;;3.70;;
75535;SDS011;64119;52.070;20.804;2023-12-28T12:30:06;6.40;;;3.50;;
75535;SDS011;64119;52.070;20.804;2023-12-28T12:32:34;10.10;;;3.90;;
75535;SDS011;64119;52.070;20.804;2023-12-28T12:35:11;6.20;;;3.40;;
75535;SDS011;64119;52.070;20.804;2023-12-28T12:37:39;7.20;;;4.00;;
75535;SDS011;64119;52.070;20.804;2023-12-28T12:40:08;6.20;;;3.70;;
75535;SDS011;64119;52.070;20.804;2023-12-28T12:42:38;7.10;;;4.00;;
75535;SDS011;64119;52.070;20.804;2023-12-28T12:45:06;7.00;;;3.80;;
75535;SDS011;64119;52.070;20.804;2023-12-28T12:47:34;7.30;;;3.60;;
75535;SDS011;64119;52.070;20.804;2023-12-28T12:50:02;9.10;;;4.00;;
75535;SDS011;64119;52.070;20.804;2023-12-28T12:52:31;8.30;;;4.00;;
75535;SDS011;64119;52.070;20.804;2023-12-28T12:54:59;6.20;;;4.00;;
75535;SDS011;64119;52.070;20.804;2023-12-28T12:57:27;6.80;;;3.60;;
75535;SDS011;64119;52.070;20.804;2023-12-28T12:59:55;7.70;;;3.60;;
75535;SDS011;64119;52.070;20.804;2023-12-28T13:02:24;7.60;;;3.60;;
75535;SDS011;64119;52.070;20.804;2023-12-28T13:04:52;6.40;;;3.10;;
75535;SDS011;64119;52.070;20.804;2023-12-28T13:07:21;6.40;;;3.50;;
75535;SDS011;64119;52.070;20.804;2023-12-28T13:09:49;7.30;;;3.50;;
75535;SDS011;64119;52.070;20.804;2023-12-28T13:12:17;6.60;;;3.60;;
75535;SDS011;64119;52.070;20.804;2023-12-28T13:14:45;6.40;;;3.40;;
75535;SDS011;64119;52.070;20.804;2023-12-28T13:17:13;7.20;;;3.50;;
75535;SDS011;64119;52.070;20.804;2023-12-28T13:19:42;8.40;;;3.80;;
75535;SDS011;64119;52.070;20.804;2023-12-28T13:22:10;8.00;;;3.60;;
75535;SDS011;64119;52.070;20.804;2023-12-28T13:24:38;5.50;;;3.40;;
75535;SDS011;64119;52.070;20.804;2023-12-28T13:27:06;5.80;;;2.90;;
75535;SDS011;64119;52.070;20.804;2023-12-28T13:29:36;5.40;;;3.10;;
75535;SDS011;64119;52.070;20.804;2023-12-28T13:32:04;7.80;;;3.40;;
75535;SDS011;64119;52.070;20.804;2023-12-28T13:34:32;6.90;;;3.30;;
75535;SDS011;64119;52.070;20.804;2023-12-28T13:37:00;8.80;;;4.10;;
75535;SDS011;64119;52.070;20.804;2023-12-28T13:39:30;8.50;;;4.30;;
75535;SDS011;64119;52.070;20.804;2023-12-28T13:41:58;12.70;;;5.30;;
75535;SDS011;64119;52.070;20.804;2023-12-28T13:44:26;11.40;;;4.90;;
75535;SDS011;64119;52.070;20.804;2023-12-28T13:46:56;13.40;;;6.30;;
75535;SDS011;64119;52.070;20.804;2023-12-28T13:49:23;9.80;;;4.60;;
75535;SDS011;64119;52.070;20.804;2023-12-28T13:51:53;7.90;;;4.30;;
75535;SDS011;64119;52.070;20.804;2023-12-28T13:54:22;9.70;;;4.20;;
75535;SDS011;64119;52.070;20.804;2023-12-28T13:56:50;7.50;;;3.80;;
75535;SDS011;64119;52.070;20.804;2023-12-28T13:59:24;8.00;;;4.20;;
75535;SDS011;64119;52.070;20.804;2023-12-28T14:01:52;11.70;;;5.10;;
75535;SDS011;64119;52.070;20.804;2023-12-28T14:04:19;12.60;;;6.40;;
75535;SDS011;64119;52.070;20.804;2023-12-28T14:06:47;9.40;;;5.40;;
75535;SDS011;64119;52.070;20.804;2023-12-28T14:09:15;10.00;;;5.30;;
75535;SDS011;64119;52.070;20.804;2023-12-28T14:11:47;10.10;;;4.50;;
75535;SDS011;64119;52.070;20.804;2023-12-28T14:14:15;8.30;;;4.30;;
75535;SDS011;64119;52.070;20.804;2023-12-28T14:16:43;7.70;;;4.30;;
75535;SDS011;64119;52.070;20.804;2023-12-28T14:19:13;8.70;;;4.30;;
75535;SDS011;64119;52.070;20.804;2023-12-28T14:21:41;9.40;;;4.40;;
75535;SDS011;64119;52.070;20.804;2023-12-28T14:24:10;6.00;;;3.70;;
75535;SDS011;64119;52.070;20.804;2023-12-28T14:26:40;6.80;;;4.10;;
75535;SDS011;64119;52.070;20.804;2023-12-28T14:29:14;6.90;;;4.20;;
75535;SDS011;64119;52.070;20.804;2023-12-28T14:31:43;8.00;;;4.20;;
75535;SDS011;64119;52.070;20.804;2023-12-28T14:34:11;7.90;;;3.80;;
75535;SDS011;64119;52.070;20.804;2023-12-28T14:36:40;11.20;;;4.20;;
75535;SDS011;64119;52.070;20.804;2023-12-28T14:39:09;10.20;;;5.00;;
75535;SDS011;64119;52.070;20.804;2023-12-28T14:41:37;10.60;;;4.80;;
75535;SDS011;64119;52.070;20.804;2023-12-28T14:44:10;8.10;;;4.20;;